Time;durP1;ratioP1;P1;durP2;ratioP2;P2;SDS_P1;SDS_P2;PMS_P1;PMS_P2;Temp;Humidity;BMP_temperature;BMP_pressure;BME280_temperature;BME280_humidity;BME280_pressure;Samples;Min_cycle;Max_cycle;Signal;HPM_P1;HPM_P2
2021/08/13 00:02:26;;;;;;;11.32;4.10;;;17.90;87.90;;;;;;6246333;22;20201;-79
2021/08/13 00:04:53;;;;;;;9.70;4.10;;;17.90;88.00;;;;;;6250947;23;20012;-79
2021/08/13 00:07:28;;;;;;;8.00;4.25;;;17.90;88.00;;;;;;6258097;23;20485;-79
2021/08/13 00:09:55;;;;;;;7.57;3.83;;;17.90;87.80;;;;;;6257828;22;20008;-79
2021/08/13 00:12:26;;;;;;;7.43;3.47;;;17.70;88.20;;;;;;6257598;23;20383;-80
2021/08/13 00:14:57;;;;;;;8.23;4.28;;;17.70;88.40;;;;;;6254514;23;20062;-79
2021/08/13 00:17:24;;;;;;;8.27;3.75;;;17.70;88.30;;;;;;6257247;22;20349;-80
2021/08/13 00:19:51;;;;;;;8.75;3.83;;;17.70;88.40;;;;;;6258196;23;20278;-79
2021/08/13 00:22:20;;;;;;;8.55;4.10;;;17.60;88.60;;;;;;6256875;22;20092;-80
2021/08/13 00:24:48;;;;;;;8.18;3.88;;;17.60;88.70;;;;;;6255361;23;20028;-79
2021/08/13 00:27:15;;;;;;;9.93;4.18;;;17.60;88.50;;;;;;6254734;23;20313;-79
2021/08/13 00:29:43;;;;;;;11.40;4.07;;;17.60;88.60;;;;;;6257043;22;20303;-79
2021/08/13 00:32:10;;;;;;;8.32;4.22;;;17.60;88.60;;;;;;6255893;23;20176;-80
2021/08/13 00:34:39;;;;;;;8.13;3.93;;;17.60;88.50;;;;;;6256317;23;20311;-80
2021/08/13 00:37:08;;;;;;;7.93;3.92;;;17.60;88.60;;;;;;6256257;23;20083;-80
2021/08/13 00:39:36;;;;;;;6.13;3.17;;;17.40;88.90;;;;;;6254591;23;20024;-80
2021/08/13 00:42:06;;;;;;;9.10;4.30;;;17.40;88.90;;;;;;6252760;23;20418;-79
2021/08/13 00:44:37;;;;;;;7.65;3.65;;;17.40;89.00;;;;;;6253679;23;20035;-79
2021/08/13 00:47:04;;;;;;;9.27;4.32;;;17.30;89.10;;;;;;6256724;23;20341;-80
2021/08/13 00:49:58;;;;;;;6.63;3.45;;;17.30;89.10;;;;;;6227549;23;20074;-80
2021/08/13 00:52:34;;;;;;;8.35;3.70;;;17.30;89.20;;;;;;6254843;23;20078;-80
2021/08/13 00:55:02;;;;;;;9.32;3.95;;;17.20;89.10;;;;;;6254115;23;20070;-80
2021/08/13 00:57:48;;;;;;;6.82;3.42;;;17.20;89.20;;;;;;6252582;23;20111;-80
2021/08/13 01:00:32;;;;;;;7.60;3.67;;;17.20;89.10;;;;;;6248686;23;20063;-80
2021/08/13 01:03:00;;;;;;;7.93;3.53;;;17.20;88.90;;;;;;6255868;23;20028;-79
2021/08/13 01:05:33;;;;;;;8.77;4.03;;;17.20;88.90;;;;;;6253609;23;20287;-79
2021/08/13 01:08:01;;;;;;;8.82;3.53;;;17.20;89.00;;;;;;6254543;23;20027;-80
2021/08/13 01:10:37;;;;;;;6.72;3.70;;;17.20;89.00;;;;;;6253540;23;20028;-79
2021/08/13 01:13:12;;;;;;;8.63;3.75;;;17.10;89.00;;;;;;6257489;23;20016;-80
2021/08/13 01:15:44;;;;;;;7.13;3.60;;;17.20;89.00;;;;;;6252053;23;20024;-80
2021/08/13 01:18:16;;;;;;;6.15;3.25;;;17.20;88.80;;;;;;6254860;23;20070;-80
2021/08/13 01:21:16;;;;;;;7.20;3.83;;;17.10;88.90;;;;;;5781270;22;10000333;-79
2021/08/13 01:23:52;;;;;;;11.80;3.65;;;17.10;89.10;;;;;;4955373;23;10001154;-79
2021/08/13 01:26:22;;;;;;;13.48;4.28;;;17.00;89.20;;;;;;6253290;23;20192;-77
2021/08/13 01:29:08;;;;;;;8.73;3.95;;;17.00;89.30;;;;;;6278998;22;20090;-80
2021/08/13 01:31:43;;;;;;;10.68;3.80;;;16.90;89.40;;;;;;6253634;23;20028;-79
2021/08/13 01:34:15;;;;;;;8.30;4.18;;;16.80;89.50;;;;;;6255501;23;20047;-80
2021/08/13 01:36:45;;;;;;;7.68;3.47;;;16.80;89.80;;;;;;6253431;23;20250;-79
2021/08/13 01:39:13;;;;;;;9.80;4.00;;;16.90;89.80;;;;;;6256013;23;20058;-80
2021/08/13 01:41:42;;;;;;;7.95;4.40;;;16.80;89.80;;;;;;6257296;22;20076;-80
2021/08/13 01:44:13;;;;;;;9.75;4.55;;;16.80;90.00;;;;;;6255865;22;20026;-79
2021/08/13 01:46:42;;;;;;;10.00;3.78;;;16.80;89.90;;;;;;6256565;23;20059;-80
2021/08/13 01:49:12;;;;;;;8.63;4.30;;;16.80;89.90;;;;;;6255042;23;20352;-80
2021/08/13 01:51:41;;;;;;;8.77;3.88;;;16.80;89.90;;;;;;6255783;23;20062;-79
2021/08/13 01:54:10;;;;;;;7.07;3.50;;;16.70;89.90;;;;;;6258813;23;20024;-79
2021/08/13 01:56:42;;;;;;;7.75;4.15;;;16.70;89.80;;;;;;6254296;23;20092;-79
2021/08/13 01:59:14;;;;;;;;;;;16.70;89.70;;;;;;6253358;23;20048;-79
2021/08/13 02:01:42;;;;;;;7.65;3.65;;;16.60;89.60;;;;;;6250717;22;19912;-79
2021/08/13 02:04:14;;;;;;;10.18;3.80;;;16.60;89.80;;;;;;6254801;23;20020;-79
2021/08/13 02:06:45;;;;;;;7.38;3.70;;;16.60;90.00;;;;;;6255895;23;20020;-79
2021/08/13 02:09:17;;;;;;;9.20;3.60;;;16.50;90.10;;;;;;6253551;23;20028;-80
2021/08/13 02:11:45;;;;;;;6.50;3.63;;;16.60;89.90;;;;;;6255037;23;20307;-79
2021/08/13 02:14:17;;;;;;;10.57;3.90;;;16.60;89.90;;;;;;6255849;23;20020;-79
2021/08/13 02:16:50;;;;;;;8.30;3.93;;;16.60;90.00;;;;;;6255697;23;20028;-78
2021/08/13 02:19:28;;;;;;;7.07;3.42;;;16.60;90.00;;;;;;6254569;23;20614;-79
2021/08/13 02:21:56;;;;;;;9.38;3.78;;;16.60;90.00;;;;;;6254480;23;20023;-79
2021/08/13 02:24:23;;;;;;;7.63;4.00;;;16.60;90.00;;;;;;6254116;22;20020;-78
2021/08/13 02:27:01;;;;;;;8.27;3.72;;;16.60;90.00;;;;;;6251364;23;20200;-79
2021/08/13 02:29:30;;;;;;;7.85;3.70;;;16.60;89.80;;;;;;6253136;23;20230;-79
2021/08/13 02:31:59;;;;;;;8.30;3.95;;;16.50;90.00;;;;;;6253867;23;20024;-78
2021/08/13 02:34:30;;;;;;;9.23;4.55;;;16.50;89.90;;;;;;6254425;23;20069;-79
2021/08/13 02:37:03;;;;;;;6.43;3.15;;;16.50;89.90;;;;;;6252020;23;20215;-79
2021/08/13 02:39:40;;;;;;;8.20;4.05;;;16.50;89.90;;;;;;6252334;22;20050;-79
2021/08/13 02:42:12;;;;;;;6.80;3.55;;;16.50;89.70;;;;;;6253237;22;20208;-79
2021/08/13 02:44:44;;;;;;;7.15;3.33;;;16.40;89.80;;;;;;6254479;23;20078;-79
2021/08/13 02:47:12;;;;;;;8.32;4.00;;;16.30;90.00;;;;;;6251288;23;20034;-79
2021/08/13 02:49:50;;;;;;;9.73;3.72;;;16.30;90.20;;;;;;6251705;23;20020;-79
2021/08/13 02:52:21;;;;;;;7.78;3.67;;;16.30;90.20;;;;;;6253955;23;20024;-79
2021/08/13 02:54:49;;;;;;;8.70;3.78;;;16.30;90.10;;;;;;6252643;23;20043;-80
2021/08/13 02:57:18;;;;;;;8.90;3.75;;;16.30;90.10;;;;;;6253398;23;20054;-79
2021/08/13 02:59:48;;;;;;;7.63;3.38;;;16.40;89.90;;;;;;6252102;23;20035;-79
2021/08/13 03:02:17;;;;;;;9.18;3.92;;;16.30;89.80;;;;;;6247940;23;20296;-79
2021/08/13 03:04:46;;;;;;;8.75;3.65;;;16.30;89.90;;;;;;6255153;23;20082;-78
2021/08/13 03:07:14;;;;;;;7.75;3.53;;;16.20;90.30;;;;;;6253067;23;20031;-79
2021/08/13 03:09:41;;;;;;;10.60;4.25;;;16.20;90.30;;;;;;6250960;23;20392;-77
2021/08/13 03:12:11;;;;;;;8.93;3.67;;;16.20;90.40;;;;;;6277329;22;20020;-78
2021/08/13 03:14:40;;;;;;;7.93;4.18;;;16.40;90.20;;;;;;6250759;23;20319;-79
2021/08/13 03:17:08;;;;;;;8.93;4.10;;;16.30;90.10;;;;;;6246102;23;20044;-78
2021/08/13 03:19:36;;;;;;;11.00;4.20;;;16.30;90.20;;;;;;6249200;22;20079;-79
2021/08/13 03:22:06;;;;;;;8.45;4.57;;;16.20;90.00;;;;;;6251527;23;20016;-78
2021/08/13 03:24:35;;;;;;;10.45;3.95;;;16.20;90.30;;;;;;6251705;23;20024;-78
2021/08/13 03:27:06;;;;;;;7.78;4.03;;;16.20;89.90;;;;;;6253990;23;20246;-78
2021/08/13 03:29:35;;;;;;;8.40;3.97;;;16.20;90.20;;;;;;6253443;23;20035;-79
2021/08/13 03:32:05;;;;;;;10.70;3.60;;;16.10;90.40;;;;;;6254802;23;20017;-78
2021/08/13 03:34:33;;;;;;;11.23;3.67;;;16.10;90.50;;;;;;6253085;23;20330;-79
2021/08/13 03:37:01;;;;;;;10.18;3.80;;;16.10;90.60;;;;;;6254202;23;20020;-79
2021/08/13 03:39:34;;;;;;;8.48;4.18;;;16.00;90.50;;;;;;6256914;23;20080;-79
2021/08/13 03:42:01;;;;;;;10.70;4.07;;;16.10;90.40;;;;;;6256552;23;20024;-79
2021/08/13 03:44:30;;;;;;;8.02;3.70;;;16.10;90.20;;;;;;6256494;22;20021;-79
2021/08/13 03:46:58;;;;;;;8.90;4.37;;;16.10;89.90;;;;;;6256202;23;20029;-79
2021/08/13 03:49:26;;;;;;;11.45;4.43;;;16.10;89.70;;;;;;6258121;23;20119;-79
2021/08/13 03:51:57;;;;;;;7.82;4.07;;;16.00;89.90;;;;;;6256824;23;20091;-78
2021/08/13 03:54:24;;;;;;;9.65;3.67;;;15.90;90.10;;;;;;6257571;23;20040;-79
2021/08/13 03:56:55;;;;;;;9.53;3.40;;;15.90;90.30;;;;;;6278803;22;20031;-79
2021/08/13 03:59:22;;;;;;;9.38;3.65;;;15.90;90.40;;;;;;6255603;23;20462;-78
2021/08/13 04:01:50;;;;;;;8.40;4.20;;;15.90;90.20;;;;;;6248350;22;20016;-79
2021/08/13 04:04:17;;;;;;;10.25;4.35;;;15.90;90.30;;;;;;6253473;23;20031;-79
2021/08/13 04:06:45;;;;;;;9.63;3.55;;;15.90;90.30;;;;;;6277344;22;20028;-79
2021/08/13 04:09:12;;;;;;;7.15;3.80;;;15.80;90.50;;;;;;6251060;23;20028;-79
2021/08/13 04:11:39;;;;;;;7.78;3.70;;;15.90;90.60;;;;;;6252822;22;20039;-79
2021/08/13 04:14:08;;;;;;;7.47;3.63;;;15.90;90.10;;;;;;6251836;23;20075;-79
2021/08/13 04:16:36;;;;;;;6.97;3.60;;;15.90;90.10;;;;;;6256867;23;20026;-78
2021/08/13 04:19:04;;;;;;;12.07;3.80;;;15.90;90.20;;;;;;6256176;23;20028;-80
2021/08/13 04:21:35;;;;;;;10.77;4.80;;;15.90;90.10;;;;;;6281470;22;20020;-80
2021/08/13 04:24:02;;;;;;;7.38;3.67;;;15.90;90.10;;;;;;6256722;23;20040;-78
2021/08/13 04:26:29;;;;;;;8.05;3.70;;;15.90;90.20;;;;;;6254976;23;20070;-80
2021/08/13 04:28:57;;;;;;;8.13;4.03;;;15.90;90.10;;;;;;6254692;23;20207;-79
2021/08/13 04:31:25;;;;;;;9.40;4.18;;;15.90;90.30;;;;;;6255290;23;20106;-79
2021/08/13 04:33:54;;;;;;;11.32;4.60;;;15.90;90.10;;;;;;6254557;23;20078;-79
2021/08/13 04:36:25;;;;;;;8.90;4.10;;;16.00;89.90;;;;;;6253198;23;20028;-79
2021/08/13 04:38:53;;;;;;;8.60;4.43;;;16.00;89.80;;;;;;6254294;23;20027;-79
2021/08/13 04:41:21;;;;;;;11.23;3.88;;;16.00;89.50;;;;;;6255084;23;20070;-79
2021/08/13 04:43:48;;;;;;;10.52;4.75;;;16.00;89.60;;;;;;6254696;22;20028;-79
2021/08/13 04:46:16;;;;;;;10.30;4.63;;;16.10;89.40;;;;;;6279192;22;20054;-78
2021/08/13 04:48:46;;;;;;;7.45;3.90;;;16.10;89.20;;;;;;6254743;23;20040;-78
2021/08/13 04:51:17;;;;;;;8.02;4.20;;;16.10;89.20;;;;;;6254302;23;20243;-78
2021/08/13 04:53:44;;;;;;;9.05;4.38;;;16.10;89.20;;;;;;6254550;22;20012;-78
2021/08/13 04:56:11;;;;;;;11.15;3.88;;;16.10;89.20;;;;;;6254524;22;20016;-79
2021/08/13 04:58:39;;;;;;;8.40;4.55;;;16.20;89.00;;;;;;6253219;23;20052;-79
2021/08/13 05:01:09;;;;;;;8.57;4.07;;;16.40;88.70;;;;;;6249163;23;20047;-78
2021/08/13 05:03:37;;;;;;;8.27;3.78;;;16.50;88.40;;;;;;6252600;23;20024;-79
2021/08/13 05:06:06;;;;;;;9.40;4.20;;;16.60;88.20;;;;;;6252397;23;20034;-77
2021/08/13 05:08:34;;;;;;;8.18;3.60;;;16.60;88.20;;;;;;6255486;22;20016;-79
2021/08/13 05:11:01;;;;;;;7.95;3.90;;;16.60;88.00;;;;;;6254377;23;20028;-79
2021/08/13 05:13:29;;;;;;;9.10;3.85;;;16.60;87.90;;;;;;6255335;23;20008;-78
2021/08/13 05:15:57;;;;;;;8.20;4.00;;;16.70;87.90;;;;;;6254159;22;20158;-77
2021/08/13 05:18:24;;;;;;;10.00;3.95;;;16.70;87.80;;;;;;6254666;22;20028;-79
2021/08/13 05:20:51;;;;;;;8.95;4.35;;;16.60;88.00;;;;;;6254786;23;20035;-80
2021/08/13 05:23:20;;;;;;;6.82;3.35;;;16.60;87.90;;;;;;6255714;23;20017;-80
2021/08/13 05:25:48;;;;;;;10.88;4.55;;;16.60;88.10;;;;;;6255683;23;20074;-79
2021/08/13 05:28:15;;;;;;;12.52;4.32;;;16.60;88.00;;;;;;6258034;22;20379;-79
2021/08/13 05:30:43;;;;;;;8.05;3.58;;;16.60;88.20;;;;;;6282084;22;20028;-80
2021/08/13 05:33:14;;;;;;;9.40;4.18;;;16.80;88.00;;;;;;6254921;23;20016;-80
2021/08/13 05:35:41;;;;;;;7.88;3.65;;;16.90;87.70;;;;;;6257863;23;20135;-80
2021/08/13 05:38:09;;;;;;;7.72;4.07;;;16.90;87.50;;;;;;6252411;23;20043;-80
2021/08/13 05:40:39;;;;;;;8.75;4.18;;;17.00;87.40;;;;;;6251288;23;20075;-78
2021/08/13 05:43:11;;;;;;;9.00;3.80;;;17.00;87.40;;;;;;6255088;22;20027;-80
2021/08/13 05:45:40;;;;;;;14.07;3.87;;;17.10;87.00;;;;;;6255822;22;20020;-79
2021/08/13 05:48:08;;;;;;;10.20;4.07;;;17.10;87.10;;;;;;6255563;23;20028;-78
2021/08/13 05:50:40;;;;;;;7.60;3.83;;;17.10;87.10;;;;;;6256844;23;20031;-79
2021/08/13 05:53:10;;;;;;;8.45;3.85;;;17.10;87.10;;;;;;6252600;23;20371;-79
2021/08/13 05:55:41;;;;;;;9.30;4.18;;;17.10;86.70;;;;;;6251994;23;20032;-79
2021/08/13 05:58:09;;;;;;;9.25;3.95;;;17.20;86.50;;;;;;6252243;23;20390;-79
2021/08/13 06:00:37;;;;;;;9.15;4.10;;;17.20;86.60;;;;;;6250650;23;20032;-79
2021/08/13 06:03:07;;;;;;;10.30;4.30;;;17.30;86.40;;;;;;6254631;23;20024;-80
2021/08/13 06:05:53;;;;;;;7.38;3.53;;;17.30;86.20;;;;;;6254347;23;20020;-79
2021/08/13 06:08:21;;;;;;;8.35;3.92;;;17.40;86.30;;;;;;6253796;23;20046;-79
2021/08/13 06:10:51;;;;;;;8.55;3.92;;;17.60;86.50;;;;;;6254245;23;20364;-80
2021/08/13 06:13:19;;;;;;;8.25;4.40;;;17.70;85.80;;;;;;6256134;22;20020;-79
2021/08/13 06:15:48;;;;;;;9.02;3.85;;;17.80;85.90;;;;;;6254281;23;20074;-78
2021/08/13 06:18:16;;;;;;;12.27;4.40;;;17.90;85.40;;;;;;6254486;23;20028;-79
2021/08/13 06:20:43;;;;;;;7.22;3.70;;;18.00;85.10;;;;;;6255173;23;20032;-78
2021/08/13 06:23:15;;;;;;;12.57;3.80;;;18.10;84.90;;;;;;6255516;23;20025;-79
2021/08/13 06:25:42;;;;;;;10.70;4.40;;;18.10;84.70;;;;;;6256053;23;20257;-80
2021/08/13 06:28:12;;;;;;;7.60;3.95;;;18.20;85.10;;;;;;6256198;23;20036;-80
2021/08/13 06:30:41;;;;;;;6.30;3.83;;;18.30;84.40;;;;;;6255148;23;20090;-79
2021/08/13 06:33:10;;;;;;;9.23;4.78;;;18.50;84.30;;;;;;6255355;22;20039;-79
2021/08/13 06:35:37;;;;;;;9.10;4.95;;;18.60;83.80;;;;;;6253746;23;20051;-79
2021/08/13 06:38:05;;;;;;;8.45;4.07;;;18.60;83.80;;;;;;6251628;23;20196;-79
2021/08/13 06:40:33;;;;;;;7.47;3.85;;;18.70;83.30;;;;;;6250925;23;20035;-79
2021/08/13 06:43:00;;;;;;;10.98;4.15;;;18.70;83.40;;;;;;6247862;22;20016;-80
2021/08/13 06:45:31;;;;;;;7.15;3.70;;;18.80;83.40;;;;;;6251848;23;20024;-80
2021/08/13 06:48:07;;;;;;;8.18;3.75;;;18.90;83.00;;;;;;6254555;23;20296;-81
2021/08/13 06:50:35;;;;;;;9.88;3.95;;;19.00;83.00;;;;;;6255195;23;20028;-80
2021/08/13 06:53:03;;;;;;;7.78;3.83;;;19.20;82.50;;;;;;6257013;23;20023;-80
2021/08/13 06:55:30;;;;;;;9.35;3.92;;;19.30;82.50;;;;;;6258406;22;20023;-80
2021/08/13 06:58:01;;;;;;;13.73;4.13;;;19.50;82.10;;;;;;6255147;23;20036;-79
2021/08/13 07:00:37;;;;;;;8.35;3.63;;;19.60;81.90;;;;;;6249505;23;20254;-80
2021/08/13 07:03:05;;;;;;;11.00;4.65;;;19.70;81.20;;;;;;6253455;23;20044;-80
2021/08/13 07:05:34;;;;;;;11.48;4.00;;;20.10;80.50;;;;;;6253010;23;20070;-80
2021/08/13 07:08:11;;;;;;;7.80;4.25;;;20.20;79.90;;;;;;6255285;23;20341;-80
2021/08/13 07:10:43;;;;;;;10.43;4.03;;;20.30;79.00;;;;;;6255139;23;20028;-80
2021/08/13 07:13:11;;;;;;;8.02;4.03;;;20.50;78.90;;;;;;6254115;23;20382;-80
2021/08/13 07:15:40;;;;;;;9.80;4.20;;;20.60;78.40;;;;;;6276029;22;20027;-80
2021/08/13 07:18:08;;;;;;;9.50;4.07;;;20.60;77.70;;;;;;6255823;23;20082;-79
2021/08/13 07:20:35;;;;;;;6.85;3.53;;;20.60;77.80;;;;;;6278717;22;20028;-80
2021/08/13 07:23:06;;;;;;;7.30;3.90;;;20.90;78.00;;;;;;6251886;23;20226;-80
2021/08/13 07:25:39;;;;;;;9.07;3.85;;;21.10;77.10;;;;;;6279811;22;20316;-80
2021/08/13 07:28:07;;;;;;;9.95;4.13;;;21.10;77.30;;;;;;6251048;23;20031;-81
2021/08/13 07:30:37;;;;;;;7.25;3.72;;;21.30;77.40;;;;;;6248652;23;20020;-77
2021/08/13 07:33:06;;;;;;;9.80;4.05;;;21.60;76.00;;;;;;6253852;23;20024;-80
2021/08/13 07:35:33;;;;;;;6.65;3.53;;;21.80;75.80;;;;;;6254622;22;20028;-76
2021/08/13 07:38:01;;;;;;;7.57;4.00;;;22.00;75.10;;;;;;6252794;23;20080;-80
2021/08/13 07:40:28;;;;;;;9.07;3.90;;;22.20;73.50;;;;;;6255017;22;20012;-79
2021/08/13 07:42:56;;;;;;;6.95;4.05;;;22.60;72.40;;;;;;6253863;22;20016;-80
2021/08/13 07:45:24;;;;;;;7.18;3.45;;;22.70;71.00;;;;;;6254897;23;20066;-80
2021/08/13 07:47:53;;;;;;;8.20;3.35;;;22.90;71.60;;;;;;6279722;22;20216;-80
2021/08/13 07:50:22;;;;;;;9.90;3.45;;;23.00;71.10;;;;;;6255292;22;20062;-80
2021/08/13 07:52:51;;;;;;;6.90;3.73;;;23.10;71.00;;;;;;6279400;22;20024;-80
2021/08/13 07:55:22;;;;;;;9.23;4.07;;;23.30;71.10;;;;;;6254007;23;20042;-80
2021/08/13 07:57:50;;;;;;;8.23;3.70;;;23.30;70.30;;;;;;6255082;23;20040;-81
2021/08/13 08:00:20;;;;;;;6.70;3.50;;;23.30;69.80;;;;;;6246369;23;20035;-80
2021/08/13 08:02:53;;;;;;;7.10;3.78;;;23.50;69.60;;;;;;6262986;23;20035;-80
2021/08/13 08:05:22;;;;;;;8.75;3.67;;;23.60;69.60;;;;;;6259551;23;20047;-80
2021/08/13 08:07:49;;;;;;;7.78;3.58;;;23.70;69.20;;;;;;6262755;23;20051;-80
2021/08/13 08:10:16;;;;;;;8.90;3.50;;;24.00;68.00;;;;;;6262436;23;20024;-79
2021/08/13 08:12:44;;;;;;;6.78;2.90;;;24.00;68.10;;;;;;6261606;23;20020;-80
2021/08/13 08:15:11;;;;;;;9.23;3.88;;;24.20;67.00;;;;;;6258575;23;20071;-80
2021/08/13 08:17:38;;;;;;;7.70;3.28;;;24.50;66.60;;;;;;6261455;23;20027;-80
2021/08/13 08:20:09;;;;;;;9.18;3.90;;;24.70;66.10;;;;;;6260854;23;20039;-81
2021/08/13 08:22:40;;;;;;;7.50;4.05;;;24.90;66.40;;;;;;6260543;22;20032;-78
2021/08/13 08:25:09;;;;;;;5.47;2.80;;;25.00;66.30;;;;;;6260596;22;20031;-79
2021/08/13 08:27:37;;;;;;;7.53;3.50;;;24.90;66.10;;;;;;6262710;22;20505;-81
2021/08/13 08:30:05;;;;;;;9.07;3.38;;;24.90;64.70;;;;;;6264381;23;20016;-80
2021/08/13 08:32:32;;;;;;;11.10;4.05;;;24.90;65.70;;;;;;6264258;23;20031;-80
2021/08/13 08:34:59;;;;;;;9.75;4.25;;;24.90;65.60;;;;;;6264184;23;20024;-80
2021/08/13 08:37:26;;;;;;;6.82;3.20;;;25.00;65.90;;;;;;6265151;23;20031;-81
2021/08/13 08:39:55;;;;;;;9.65;3.83;;;25.00;65.60;;;;;;6263212;23;20226;-79
2021/08/13 08:42:22;;;;;;;7.35;3.80;;;24.90;65.60;;;;;;6264815;22;20034;-80
2021/08/13 08:44:51;;;;;;;7.90;4.03;;;24.80;65.00;;;;;;6265347;23;20024;-81
2021/08/13 08:47:21;;;;;;;10.02;4.22;;;24.90;65.30;;;;;;6263930;22;20079;-80
2021/08/13 08:49:50;;;;;;;7.35;3.47;;;24.70;65.60;;;;;;6262945;23;20024;-79
2021/08/13 08:52:19;;;;;;;9.32;4.07;;;24.60;65.40;;;;;;6264097;23;20043;-80
2021/08/13 08:54:47;;;;;;;7.97;4.32;;;24.60;65.40;;;;;;6264468;23;20028;-79
2021/08/13 08:57:18;;;;;;;24.13;4.53;;;24.80;64.20;;;;;;6262596;23;20152;-80
2021/08/13 08:59:45;;;;;;;9.10;4.25;;;24.80;64.50;;;;;;6201029;23;20331;-80
2021/08/13 09:02:14;;;;;;;9.93;4.35;;;25.00;64.20;;;;;;6195893;23;20044;-80
2021/08/13 09:04:42;;;;;;;12.77;4.93;;;25.10;64.40;;;;;;6200693;23;20064;-80
2021/08/13 09:07:09;;;;;;;10.93;4.07;;;25.10;64.20;;;;;;6200651;23;20205;-80
2021/08/13 09:09:36;;;;;;;8.40;3.90;;;25.20;63.80;;;;;;6202525;23;20052;-80
2021/08/13 09:12:04;;;;;;;11.00;4.80;;;25.40;63.60;;;;;;6200335;23;20052;-81
2021/08/13 09:14:40;;;;;;;7.18;4.07;;;25.30;64.60;;;;;;6205594;23;20363;-80
2021/08/13 09:17:08;;;;;;;11.35;4.55;;;25.60;64.00;;;;;;6202666;23;20036;-81
2021/08/13 09:19:43;;;;;;;8.10;4.25;;;25.70;63.60;;;;;;6199802;23;20232;-81
2021/08/13 09:22:12;;;;;;;11.10;4.82;;;26.00;64.20;;;;;;6201399;23;20033;-81
2021/08/13 09:24:41;;;;;;;10.10;4.55;;;26.20;63.10;;;;;;6204618;23;20021;-80
2021/08/13 09:27:23;;;;;;;9.07;3.83;;;26.20;61.80;;;;;;6199442;23;20328;-78
2021/08/13 09:30:14;;;;;;;8.18;4.32;;;26.40;61.80;;;;;;6223612;23;20390;-81
2021/08/13 09:32:57;;;;;;;9.07;4.63;;;26.20;61.90;;;;;;6223299;23;20084;-81
2021/08/13 09:35:32;;;;;;;8.43;4.28;;;26.30;61.20;;;;;;6199593;23;20016;-80
2021/08/13 09:38:01;;;;;;;9.90;4.57;;;26.20;60.80;;;;;;6198868;23;20028;-80
2021/08/13 09:40:39;;;;;;;10.17;4.93;;;26.50;61.30;;;;;;6224232;23;20013;-81
2021/08/13 09:43:07;;;;;;;9.75;4.65;;;26.70;60.40;;;;;;6197445;23;20185;-81
2021/08/13 09:45:36;;;;;;;8.90;4.37;;;26.80;60.70;;;;;;6218876;23;20212;-80
2021/08/13 09:48:05;;;;;;;10.65;5.18;;;27.00;59.20;;;;;;6196894;23;20017;-81
2021/08/13 09:50:38;;;;;;;7.78;4.25;;;27.00;59.00;;;;;;6203779;23;20023;-81
2021/08/13 09:53:11;;;;;;;7.47;4.32;;;27.10;58.30;;;;;;6224015;23;20029;-81
2021/08/13 09:55:40;;;;;;;9.35;4.72;;;27.30;58.70;;;;;;6226550;23;20123;-80
2021/08/13 09:58:09;;;;;;;8.95;4.18;;;27.70;56.90;;;;;;6245147;22;20039;-80
2021/08/13 10:00:47;;;;;;;10.27;4.78;;;27.90;55.60;;;;;;6257891;22;20016;-80
2021/08/13 10:03:16;;;;;;;9.25;3.90;;;28.00;55.40;;;;;;6261670;22;20030;-80
2021/08/13 10:05:43;;;;;;;7.95;4.10;;;28.30;54.50;;;;;;6261064;22;20046;-80
2021/08/13 10:08:11;;;;;;;10.80;3.72;;;28.50;53.70;;;;;;6259615;23;20095;-81
2021/08/13 10:10:42;;;;;;;9.45;4.20;;;28.60;53.40;;;;;;6261670;23;20319;-80
2021/08/13 10:13:16;;;;;;;8.48;4.72;;;28.80;52.80;;;;;;6259183;23;20028;-80
2021/08/13 10:15:57;;;;;;;7.97;4.10;;;29.10;51.10;;;;;;6261930;23;20050;-80
2021/08/13 10:18:30;;;;;;;7.97;3.80;;;29.00;51.80;;;;;;6259318;23;20028;-78
2021/08/13 10:21:03;;;;;;;8.52;4.07;;;29.10;51.30;;;;;;6258297;23;20326;-80
2021/08/13 10:23:34;;;;;;;8.35;4.07;;;29.60;51.00;;;;;;6259548;23;20050;-80
2021/08/13 10:26:01;;;;;;;8.77;3.67;;;30.00;50.20;;;;;;6284656;22;20044;-78
2021/08/13 10:28:35;;;;;;;7.55;4.15;;;30.50;48.30;;;;;;6253541;23;20028;-80
2021/08/13 10:31:12;;;;;;;8.15;3.50;;;31.00;47.00;;;;;;6251408;23;20026;-80
2021/08/13 10:33:48;;;;;;;8.90;4.15;;;31.20;47.20;;;;;;6250486;23;20092;-79
2021/08/13 10:36:18;;;;;;;9.05;4.18;;;31.80;46.20;;;;;;6250323;23;20314;-80
2021/08/13 10:38:46;;;;;;;;;;;32.10;45.10;;;;;;6257468;23;20032;-80
2021/08/13 10:41:14;;;;;;;7.47;3.80;;;32.60;44.50;;;;;;6262987;23;19912;-80
2021/08/13 10:43:44;;;;;;;7.25;4.05;;;32.50;43.80;;;;;;6259994;22;20016;-80
2021/08/13 10:46:20;;;;;;;9.00;4.05;;;33.10;43.10;;;;;;6260217;23;20024;-80
2021/08/13 10:48:51;;;;;;;5.95;3.45;;;33.70;42.00;;;;;;6260033;23;20027;-80
2021/08/13 10:51:27;;;;;;;7.15;3.80;;;33.40;42.30;;;;;;6259332;23;20166;-79
2021/08/13 10:54:08;;;;;;;7.70;4.05;;;33.50;42.10;;;;;;6259525;23;20372;-78
2021/08/13 10:56:40;;;;;;;10.13;4.20;;;34.00;41.40;;;;;;6255973;23;20019;-77
2021/08/13 10:59:15;;;;;;;7.72;4.38;;;34.20;40.70;;;;;;6258135;23;20091;-78
2021/08/13 11:02:13;;;;;;;9.40;4.40;;;34.50;39.80;;;;;;6253174;23;20027;-79
2021/08/13 11:04:49;;;;;;;8.32;4.05;;;35.70;37.60;;;;;;6259478;23;20016;-79
2021/08/13 11:07:50;;;;;;;10.38;4.43;;;35.80;37.70;;;;;;6259855;23;20087;-79
2021/08/13 11:10:51;;;;;;;7.18;4.05;;;35.30;38.70;;;;;;6261003;23;20075;-80
2021/08/13 11:13:21;;;;;;;9.43;4.32;;;36.10;37.80;;;;;;6257899;23;20028;-78
2021/08/13 11:16:01;;;;;;;6.72;3.92;;;38.00;34.60;;;;;;6285532;22;20020;-79
2021/08/13 11:18:34;;;;;;;8.70;3.85;;;36.30;36.70;;;;;;6259552;22;20029;-80
2021/08/13 11:21:32;;;;;;;6.95;4.38;;;36.80;35.70;;;;;;6260874;22;20032;-79
2021/08/13 11:24:01;;;;;;;9.27;4.05;;;37.10;35.70;;;;;;6283452;22;20024;-80
2021/08/13 11:27:12;;;;;;;7.50;4.15;;;36.50;36.00;;;;;;6254746;23;20030;-81
2021/08/13 11:29:45;;;;;;;6.55;4.05;;;37.20;35.10;;;;;;6258091;23;20023;-80
2021/08/13 11:32:35;;;;;;;7.45;3.55;;;37.10;35.20;;;;;;6262366;23;20051;-81
2021/08/13 11:35:06;;;;;;;9.35;4.53;;;37.10;35.00;;;;;;6262584;23;20024;-80
2021/08/13 11:37:49;;;;;;;9.07;4.03;;;37.10;35.30;;;;;;6262501;23;20020;-79
2021/08/13 11:40:50;;;;;;;9.90;4.55;;;37.30;34.90;;;;;;6258400;23;20012;-79
2021/08/13 11:43:21;;;;;;;7.53;4.53;;;38.40;33.00;;;;;;6260426;22;20020;-79
2021/08/13 11:45:50;;;;;;;10.50;4.53;;;37.50;33.80;;;;;;6258924;22;20016;-80
2021/08/13 11:48:22;;;;;;;9.20;4.22;;;36.80;35.20;;;;;;6261543;23;20422;-80
2021/08/13 11:50:50;;;;;;;7.13;4.07;;;37.50;34.40;;;;;;6259092;23;20020;-80
2021/08/13 11:53:18;;;;;;;6.95;4.20;;;37.80;33.60;;;;;;6256692;23;20020;-79
2021/08/13 11:55:50;;;;;;;9.70;4.65;;;38.20;33.00;;;;;;6261643;22;20019;-79
2021/08/13 11:58:24;;;;;;;8.02;4.43;;;37.90;33.80;;;;;;6258771;23;20024;-79
2021/08/13 12:01:04;;;;;;;8.43;5.05;;;38.20;33.00;;;;;;6279831;22;20027;-80
2021/08/13 12:03:35;;;;;;;6.57;4.03;;;37.80;33.40;;;;;;6260151;23;20020;-79
2021/08/13 12:06:17;;;;;;;8.40;4.55;;;37.50;33.60;;;;;;6260357;23;20028;-80
2021/08/13 12:08:51;;;;;;;9.05;4.28;;;37.50;34.10;;;;;;6260240;23;20027;-80
2021/08/13 12:11:24;;;;;;;9.27;4.82;;;38.10;32.90;;;;;;6260750;22;20028;-80
2021/08/13 12:13:53;;;;;;;7.18;3.88;;;37.80;33.10;;;;;;6259355;23;20031;-80
2021/08/13 12:16:21;;;;;;;10.55;4.85;;;38.60;31.80;;;;;;6260298;22;20052;-80
2021/08/13 12:18:49;;;;;;;10.02;4.72;;;37.00;34.10;;;;;;6259025;22;20012;-80
2021/08/13 12:21:21;;;;;;;8.23;4.07;;;37.50;33.10;;;;;;6265905;23;20059;-80
2021/08/13 12:23:58;;;;;;;8.10;3.85;;;37.60;33.30;;;;;;6286988;22;20076;-80
2021/08/13 12:26:28;;;;;;;7.05;4.63;;;38.40;32.60;;;;;;6261262;23;20082;-81
2021/08/13 12:28:57;;;;;;;9.80;4.85;;;39.10;30.80;;;;;;6262398;23;20028;-80
2021/08/13 12:31:25;;;;;;;8.55;5.05;;;38.60;31.50;;;;;;6262974;22;20318;-81
2021/08/13 12:33:57;;;;;;;8.68;4.78;;;38.30;32.40;;;;;;6259103;23;20039;-81
2021/08/13 12:36:32;;;;;;;8.55;4.47;;;37.30;33.50;;;;;;6287491;22;20087;-80
2021/08/13 12:38:59;;;;;;;7.57;5.13;;;36.80;34.60;;;;;;6260720;23;20036;-80
2021/08/13 12:41:30;;;;;;;8.93;4.85;;;37.60;32.90;;;;;;6263037;22;20073;-79
2021/08/13 12:43:58;;;;;;;9.83;5.03;;;37.10;33.90;;;;;;6262219;22;20047;-80
2021/08/13 12:46:31;;;;;;;6.85;4.82;;;37.90;33.60;;;;;;6259464;23;20438;-80
2021/08/13 12:48:59;;;;;;;8.20;4.75;;;38.20;31.70;;;;;;6258953;23;20035;-80
2021/08/13 12:51:29;;;;;;;6.78;4.90;;;39.30;31.20;;;;;;6259177;22;20047;-81
2021/08/13 12:54:29;;;;;;;10.50;4.93;;;38.60;31.50;;;;;;6283575;22;20027;-79
2021/08/13 12:57:00;;;;;;;7.10;4.55;;;39.00;31.70;;;;;;6254954;23;20019;-79
2021/08/13 12:59:33;;;;;;;8.02;4.55;;;39.20;31.00;;;;;;6227864;23;20334;-78
2021/08/13 13:02:01;;;;;;;7.65;4.90;;;38.90;30.60;;;;;;6249674;22;20028;-80
2021/08/13 13:04:40;;;;;;;8.45;4.70;;;38.40;31.40;;;;;;6228642;23;20009;-81
2021/08/13 13:07:09;;;;;;;7.88;4.68;;;39.00;31.30;;;;;;6282701;22;20035;-80